Alvarado, Minnesota
Current Conditions -  °F | °C
As of 10:00 AM on Friday 28 Nov 2014 (Local Time) from KGFK Reporting Station
Light Snow Light Snow  
Wind Chill:   Ceiling: 3200
Heat Index: 12°   Visibility: 2mi
Dew Point:   Wind: 8mph
Humidity: 85%   Direction: 100°E
Pressure: 29.94"   Gusts: NA
Location:  48.19°N, 97°W
Report Text: KGFK 281600Z 10007KT 2SM -SN BR BKN032 OVC050 M11/M13 A2994 RMK AO2 P0000
Loading
Personal Weather Stations






























Interactive Weather Map New forecast layout! Learn more

10-Day Weather Forecast

Advertisements
Track Severe Weather on mobile